sensor_id;sensor_type;location;lat;lon;timestamp;P1;durP1;ratioP1;P2;durP2;ratioP2
85691;SDS011;76122;47.806;18.914;2024-03-02T00:01:58;31.57;;;17.47;;
85691;SDS011;76122;47.806;18.914;2024-03-02T00:04:23;35.08;;;16.98;;
85691;SDS011;76122;47.806;18.914;2024-03-02T00:06:51;36.63;;;18.27;;
85691;SDS011;76122;47.806;18.914;2024-03-02T00:09:18;34.97;;;18.53;;
85691;SDS011;76122;47.806;18.914;2024-03-02T00:11:43;35.92;;;18.55;;
85691;SDS011;76122;47.806;18.914;2024-03-02T00:14:09;30.73;;;17.87;;
85691;SDS011;76122;47.806;18.914;2024-03-02T00:16:34;33.77;;;19.13;;
85691;SDS011;76122;47.806;18.914;2024-03-02T00:19:03;32.70;;;18.27;;
85691;SDS011;76122;47.806;18.914;2024-03-02T00:21:30;37.70;;;19.30;;
85691;SDS011;76122;47.806;18.914;2024-03-02T00:23:56;37.28;;;20.02;;
85691;SDS011;76122;47.806;18.914;2024-03-02T00:26:21;35.30;;;18.33;;
85691;SDS011;76122;47.806;18.914;2024-03-02T00:28:47;32.80;;;18.70;;
85691;SDS011;76122;47.806;18.914;2024-03-02T00:31:15;36.20;;;19.12;;
85691;SDS011;76122;47.806;18.914;2024-03-02T00:33:45;35.80;;;18.07;;
85691;SDS011;76122;47.806;18.914;2024-03-02T00:36:12;35.72;;;18.30;;
85691;SDS011;76122;47.806;18.914;2024-03-02T00:38:44;34.05;;;18.75;;
85691;SDS011;76122;47.806;18.914;2024-03-02T00:41:15;35.63;;;19.90;;
85691;SDS011;76122;47.806;18.914;2024-03-02T00:43:57;40.20;;;19.02;;
85691;SDS011;76122;47.806;18.914;2024-03-02T00:46:23;36.77;;;18.10;;
85691;SDS011;76122;47.806;18.914;2024-03-02T00:48:55;40.60;;;19.67;;
85691;SDS011;76122;47.806;18.914;2024-03-02T00:51:22;30.30;;;17.53;;
85691;SDS011;76122;47.806;18.914;2024-03-02T00:53:48;36.28;;;19.17;;
85691;SDS011;76122;47.806;18.914;2024-03-02T00:56:15;33.78;;;19.08;;
85691;SDS011;76122;47.806;18.914;2024-03-02T00:58:41;33.83;;;18.53;;
85691;SDS011;76122;47.806;18.914;2024-03-02T01:01:06;35.63;;;18.80;;
85691;SDS011;76122;47.806;18.914;2024-03-02T01:03:32;34.90;;;18.80;;
85691;SDS011;76122;47.806;18.914;2024-03-02T01:05:58;33.53;;;18.02;;
85691;SDS011;76122;47.806;18.914;2024-03-02T01:08:24;35.97;;;18.47;;
85691;SDS011;76122;47.806;18.914;2024-03-02T01:10:49;34.47;;;17.97;;
85691;SDS011;76122;47.806;18.914;2024-03-02T01:13:15;34.87;;;17.97;;
85691;SDS011;76122;47.806;18.914;2024-03-02T01:15:40;35.60;;;18.02;;
85691;SDS011;76122;47.806;18.914;2024-03-02T01:18:05;31.95;;;17.48;;
85691;SDS011;76122;47.806;18.914;2024-03-02T01:20:31;34.40;;;19.77;;
85691;SDS011;76122;47.806;18.914;2024-03-02T01:22:56;33.10;;;17.83;;
85691;SDS011;76122;47.806;18.914;2024-03-02T01:25:22;32.60;;;18.13;;
85691;SDS011;76122;47.806;18.914;2024-03-02T01:27:47;31.17;;;16.37;;
85691;SDS011;76122;47.806;18.914;2024-03-02T01:30:12;31.77;;;17.60;;
85691;SDS011;76122;47.806;18.914;2024-03-02T01:32:38;31.02;;;17.80;;
85691;SDS011;76122;47.806;18.914;2024-03-02T01:35:04;30.77;;;17.57;;
85691;SDS011;76122;47.806;18.914;2024-03-02T01:37:30;30.52;;;17.87;;
85691;SDS011;76122;47.806;18.914;2024-03-02T01:39:55;29.43;;;17.60;;
85691;SDS011;76122;47.806;18.914;2024-03-02T01:42:20;35.50;;;18.57;;
85691;SDS011;76122;47.806;18.914;2024-03-02T01:44:46;34.77;;;19.50;;
85691;SDS011;76122;47.806;18.914;2024-03-02T01:47:11;31.33;;;18.67;;
85691;SDS011;76122;47.806;18.914;2024-03-02T01:49:37;38.70;;;19.20;;
85691;SDS011;76122;47.806;18.914;2024-03-02T01:52:03;35.05;;;19.90;;
85691;SDS011;76122;47.806;18.914;2024-03-02T01:54:29;39.20;;;19.93;;
85691;SDS011;76122;47.806;18.914;2024-03-02T01:56:54;36.97;;;20.23;;
85691;SDS011;76122;47.806;18.914;2024-03-02T01:59:20;35.35;;;20.70;;
85691;SDS011;76122;47.806;18.914;2024-03-02T02:01:45;36.10;;;19.57;;
85691;SDS011;76122;47.806;18.914;2024-03-02T02:04:11;34.47;;;19.33;;
85691;SDS011;76122;47.806;18.914;2024-03-02T02:06:36;37.63;;;20.13;;
85691;SDS011;76122;47.806;18.914;2024-03-02T02:09:02;44.20;;;24.98;;
85691;SDS011;76122;47.806;18.914;2024-03-02T02:11:27;42.45;;;24.67;;
85691;SDS011;76122;47.806;18.914;2024-03-02T02:13:53;40.43;;;23.30;;
85691;SDS011;76122;47.806;18.914;2024-03-02T02:16:20;39.03;;;21.98;;
85691;SDS011;76122;47.806;18.914;2024-03-02T02:18:46;40.17;;;21.10;;
85691;SDS011;76122;47.806;18.914;2024-03-02T02:21:11;38.67;;;21.07;;
85691;SDS011;76122;47.806;18.914;2024-03-02T02:23:36;36.33;;;20.53;;
85691;SDS011;76122;47.806;18.914;2024-03-02T02:26:02;37.30;;;19.27;;
85691;SDS011;76122;47.806;18.914;2024-03-02T02:28:28;35.60;;;20.33;;
85691;SDS011;76122;47.806;18.914;2024-03-02T02:30:54;39.88;;;20.00;;
85691;SDS011;76122;47.806;18.914;2024-03-02T02:33:21;35.90;;;20.30;;
85691;SDS011;76122;47.806;18.914;2024-03-02T02:35:46;31.03;;;18.83;;
85691;SDS011;76122;47.806;18.914;2024-03-02T02:38:12;35.83;;;19.43;;
85691;SDS011;76122;47.806;18.914;2024-03-02T02:40:37;39.73;;;19.97;;
85691;SDS011;76122;47.806;18.914;2024-03-02T02:43:02;39.27;;;20.03;;
85691;SDS011;76122;47.806;18.914;2024-03-02T02:45:28;36.78;;;19.62;;
85691;SDS011;76122;47.806;18.914;2024-03-02T02:47:54;35.10;;;19.23;;
85691;SDS011;76122;47.806;18.914;2024-03-02T02:50:19;34.20;;;18.80;;
85691;SDS011;76122;47.806;18.914;2024-03-02T02:52:45;37.08;;;20.05;;
85691;SDS011;76122;47.806;18.914;2024-03-02T02:55:11;38.27;;;19.87;;
85691;SDS011;76122;47.806;18.914;2024-03-02T02:57:38;41.28;;;20.98;;
85691;SDS011;76122;47.806;18.914;2024-03-02T03:00:05;36.83;;;19.90;;
85691;SDS011;76122;47.806;18.914;2024-03-02T03:02:41;37.47;;;20.45;;
85691;SDS011;76122;47.806;18.914;2024-03-02T03:05:07;33.00;;;19.40;;
85691;SDS011;76122;47.806;18.914;2024-03-02T03:07:37;34.70;;;19.70;;
85691;SDS011;76122;47.806;18.914;2024-03-02T03:10:04;36.13;;;19.42;;
85691;SDS011;76122;47.806;18.914;2024-03-02T03:12:31;32.03;;;18.67;;
85691;SDS011;76122;47.806;18.914;2024-03-02T03:14:57;34.58;;;18.92;;
85691;SDS011;76122;47.806;18.914;2024-03-02T03:17:22;33.93;;;18.37;;
85691;SDS011;76122;47.806;18.914;2024-03-02T03:19:48;36.00;;;19.67;;
85691;SDS011;76122;47.806;18.914;2024-03-02T03:22:14;34.50;;;18.80;;
85691;SDS011;76122;47.806;18.914;2024-03-02T03:24:39;35.13;;;18.93;;
85691;SDS011;76122;47.806;18.914;2024-03-02T03:27:04;34.40;;;19.23;;
85691;SDS011;76122;47.806;18.914;2024-03-02T03:29:30;38.65;;;19.62;;
85691;SDS011;76122;47.806;18.914;2024-03-02T03:31:55;34.67;;;19.00;;
85691;SDS011;76122;47.806;18.914;2024-03-02T03:34:21;38.17;;;20.43;;
85691;SDS011;76122;47.806;18.914;2024-03-02T03:36:46;34.80;;;19.80;;
85691;SDS011;76122;47.806;18.914;2024-03-02T03:39:11;35.10;;;18.60;;
85691;SDS011;76122;47.806;18.914;2024-03-02T03:41:37;35.27;;;18.70;;
85691;SDS011;76122;47.806;18.914;2024-03-02T03:44:02;36.47;;;19.43;;
85691;SDS011;76122;47.806;18.914;2024-03-02T03:46:28;35.00;;;19.20;;
85691;SDS011;76122;47.806;18.914;2024-03-02T03:48:54;37.20;;;19.95;;
85691;SDS011;76122;47.806;18.914;2024-03-02T03:51:20;38.20;;;18.53;;
85691;SDS011;76122;47.806;18.914;2024-03-02T03:53:47;35.83;;;19.75;;
85691;SDS011;76122;47.806;18.914;2024-03-02T03:56:13;38.13;;;21.17;;
85691;SDS011;76122;47.806;18.914;2024-03-02T03:58:38;35.50;;;18.90;;
85691;SDS011;76122;47.806;18.914;2024-03-02T04:01:04;33.17;;;19.53;;
85691;SDS011;76122;47.806;18.914;2024-03-02T04:03:29;39.87;;;19.60;;
85691;SDS011;76122;47.806;18.914;2024-03-02T04:05:55;36.75;;;19.40;;
85691;SDS011;76122;47.806;18.914;2024-03-02T04:08:21;37.67;;;19.60;;
85691;SDS011;76122;47.806;18.914;2024-03-02T04:10:46;34.10;;;19.20;;
85691;SDS011;76122;47.806;18.914;2024-03-02T04:13:11;36.03;;;19.90;;
85691;SDS011;76122;47.806;18.914;2024-03-02T04:15:37;35.50;;;18.95;;
85691;SDS011;76122;47.806;18.914;2024-03-02T04:18:02;37.63;;;20.33;;
85691;SDS011;76122;47.806;18.914;2024-03-02T04:20:28;40.67;;;20.43;;
85691;SDS011;76122;47.806;18.914;2024-03-02T04:22:54;39.60;;;20.58;;
85691;SDS011;76122;47.806;18.914;2024-03-02T04:25:20;38.53;;;21.10;;
85691;SDS011;76122;47.806;18.914;2024-03-02T04:27:45;38.90;;;21.17;;
85691;SDS011;76122;47.806;18.914;2024-03-02T04:30:11;41.57;;;20.87;;
85691;SDS011;76122;47.806;18.914;2024-03-02T04:32:37;40.38;;;20.37;;
85691;SDS011;76122;47.806;18.914;2024-03-02T04:35:02;36.50;;;19.85;;
85691;SDS011;76122;47.806;18.914;2024-03-02T04:37:29;35.10;;;20.10;;
85691;SDS011;76122;47.806;18.914;2024-03-02T04:39:54;40.97;;;22.48;;
85691;SDS011;76122;47.806;18.914;2024-03-02T04:42:19;43.33;;;23.57;;
85691;SDS011;76122;47.806;18.914;2024-03-02T04:44:45;41.17;;;22.37;;
85691;SDS011;76122;47.806;18.914;2024-03-02T04:47:10;35.17;;;20.43;;
85691;SDS011;76122;47.806;18.914;2024-03-02T04:49:35;36.83;;;20.63;;
85691;SDS011;76122;47.806;18.914;2024-03-02T04:52:01;40.03;;;21.60;;
85691;SDS011;76122;47.806;18.914;2024-03-02T04:54:26;37.55;;;20.00;;
85691;SDS011;76122;47.806;18.914;2024-03-02T04:56:52;38.43;;;21.00;;
85691;SDS011;76122;47.806;18.914;2024-03-02T04:59:17;47.87;;;23.93;;
85691;SDS011;76122;47.806;18.914;2024-03-02T05:01:43;44.10;;;23.65;;
85691;SDS011;76122;47.806;18.914;2024-03-02T05:04:09;43.43;;;23.97;;
85691;SDS011;76122;47.806;18.914;2024-03-02T05:06:37;43.20;;;22.77;;
85691;SDS011;76122;47.806;18.914;2024-03-02T05:09:04;44.40;;;21.83;;
85691;SDS011;76122;47.806;18.914;2024-03-02T05:11:29;45.17;;;22.17;;
85691;SDS011;76122;47.806;18.914;2024-03-02T05:14:06;41.35;;;22.15;;
85691;SDS011;76122;47.806;18.914;2024-03-02T05:16:35;43.97;;;22.13;;
85691;SDS011;76122;47.806;18.914;2024-03-02T05:19:01;41.15;;;21.40;;
85691;SDS011;76122;47.806;18.914;2024-03-02T05:21:27;43.83;;;23.53;;
85691;SDS011;76122;47.806;18.914;2024-03-02T05:23:52;43.43;;;23.70;;
85691;SDS011;76122;47.806;18.914;2024-03-02T05:26:17;44.93;;;22.10;;
85691;SDS011;76122;47.806;18.914;2024-03-02T05:28:43;46.40;;;23.67;;
85691;SDS011;76122;47.806;18.914;2024-03-02T05:31:11;40.77;;;21.63;;
85691;SDS011;76122;47.806;18.914;2024-03-02T05:33:40;39.20;;;21.55;;
85691;SDS011;76122;47.806;18.914;2024-03-02T05:36:05;40.80;;;22.27;;
85691;SDS011;76122;47.806;18.914;2024-03-02T05:38:31;52.30;;;25.23;;
85691;SDS011;76122;47.806;18.914;2024-03-02T05:40:57;49.75;;;24.92;;
85691;SDS011;76122;47.806;18.914;2024-03-02T05:43:22;47.57;;;24.33;;
85691;SDS011;76122;47.806;18.914;2024-03-02T05:45:48;46.87;;;22.77;;
85691;SDS011;76122;47.806;18.914;2024-03-02T05:48:14;46.65;;;24.15;;
85691;SDS011;76122;47.806;18.914;2024-03-02T05:50:39;47.60;;;23.80;;
85691;SDS011;76122;47.806;18.914;2024-03-02T05:53:05;49.43;;;24.50;;
85691;SDS011;76122;47.806;18.914;2024-03-02T05:55:30;44.63;;;23.27;;
85691;SDS011;76122;47.806;18.914;2024-03-02T05:57:56;49.20;;;24.05;;
85691;SDS011;76122;47.806;18.914;2024-03-02T06:00:45;49.55;;;24.75;;
85691;SDS011;76122;47.806;18.914;2024-03-02T06:03:10;47.87;;;24.40;;
85691;SDS011;76122;47.806;18.914;2024-03-02T06:05:35;45.00;;;23.27;;
85691;SDS011;76122;47.806;18.914;2024-03-02T06:08:01;44.03;;;22.77;;
85691;SDS011;76122;47.806;18.914;2024-03-02T06:10:26;39.90;;;21.37;;
85691;SDS011;76122;47.806;18.914;2024-03-02T06:12:51;41.33;;;22.27;;
85691;SDS011;76122;47.806;18.914;2024-03-02T06:15:17;39.70;;;21.42;;
85691;SDS011;76122;47.806;18.914;2024-03-02T06:17:42;47.17;;;22.37;;
85691;SDS011;76122;47.806;18.914;2024-03-02T06:20:08;42.07;;;22.07;;
85691;SDS011;76122;47.806;18.914;2024-03-02T06:22:34;43.67;;;22.80;;
85691;SDS011;76122;47.806;18.914;2024-03-02T06:25:00;44.38;;;24.80;;
85691;SDS011;76122;47.806;18.914;2024-03-02T06:27:25;43.87;;;23.27;;
85691;SDS011;76122;47.806;18.914;2024-03-02T06:29:50;43.20;;;22.73;;
85691;SDS011;76122;47.806;18.914;2024-03-02T06:32:16;43.80;;;22.67;;
85691;SDS011;76122;47.806;18.914;2024-03-02T06:34:42;45.38;;;22.60;;
85691;SDS011;76122;47.806;18.914;2024-03-02T06:37:07;47.08;;;22.90;;
85691;SDS011;76122;47.806;18.914;2024-03-02T06:39:32;43.83;;;21.97;;
85691;SDS011;76122;47.806;18.914;2024-03-02T06:41:59;49.97;;;25.23;;
85691;SDS011;76122;47.806;18.914;2024-03-02T06:44:25;49.40;;;23.77;;
85691;SDS011;76122;47.806;18.914;2024-03-02T06:46:50;48.67;;;23.50;;
85691;SDS011;76122;47.806;18.914;2024-03-02T06:49:15;50.73;;;23.60;;
85691;SDS011;76122;47.806;18.914;2024-03-02T06:51:43;48.13;;;23.48;;
85691;SDS011;76122;47.806;18.914;2024-03-02T06:54:08;46.03;;;23.60;;
85691;SDS011;76122;47.806;18.914;2024-03-02T06:56:34;47.00;;;24.13;;
85691;SDS011;76122;47.806;18.914;2024-03-02T06:58:59;64.43;;;27.43;;
85691;SDS011;76122;47.806;18.914;2024-03-02T07:01:24;66.33;;;27.30;;
85691;SDS011;76122;47.806;18.914;2024-03-02T07:03:51;61.00;;;27.33;;
85691;SDS011;76122;47.806;18.914;2024-03-02T07:06:16;66.40;;;24.80;;
85691;SDS011;76122;47.806;18.914;2024-03-02T07:08:42;159.40;;;43.00;;
85691;SDS011;76122;47.806;18.914;2024-03-02T07:11:07;130.03;;;39.60;;
85691;SDS011;76122;47.806;18.914;2024-03-02T07:13:33;95.50;;;33.67;;
85691;SDS011;76122;47.806;18.914;2024-03-02T07:15:58;75.93;;;30.17;;
85691;SDS011;76122;47.806;18.914;2024-03-02T07:18:29;55.58;;;26.77;;
85691;SDS011;76122;47.806;18.914;2024-03-02T07:20:55;55.73;;;25.77;;
85691;SDS011;76122;47.806;18.914;2024-03-02T07:23:23;69.30;;;27.48;;
85691;SDS011;76122;47.806;18.914;2024-03-02T07:25:52;64.25;;;26.92;;
85691;SDS011;76122;47.806;18.914;2024-03-02T07:28:19;55.42;;;26.30;;
85691;SDS011;76122;47.806;18.914;2024-03-02T07:30:45;52.35;;;26.48;;
85691;SDS011;76122;47.806;18.914;2024-03-02T07:33:11;48.53;;;24.27;;
85691;SDS011;76122;47.806;18.914;2024-03-02T07:35:36;53.37;;;24.83;;
85691;SDS011;76122;47.806;18.914;2024-03-02T07:38:01;43.90;;;23.63;;
85691;SDS011;76122;47.806;18.914;2024-03-02T07:40:27;54.90;;;24.60;;
85691;SDS011;76122;47.806;18.914;2024-03-02T07:42:52;49.40;;;24.95;;
85691;SDS011;76122;47.806;18.914;2024-03-02T07:45:18;61.67;;;28.87;;
85691;SDS011;76122;47.806;18.914;2024-03-02T07:47:43;49.50;;;25.47;;
85691;SDS011;76122;47.806;18.914;2024-03-02T07:50:09;47.15;;;24.25;;
85691;SDS011;76122;47.806;18.914;2024-03-02T07:52:35;45.60;;;23.90;;
85691;SDS011;76122;47.806;18.914;2024-03-02T07:55:00;43.50;;;23.17;;
85691;SDS011;76122;47.806;18.914;2024-03-02T07:57:26;41.42;;;22.08;;
85691;SDS011;76122;47.806;18.914;2024-03-02T07:59:52;44.77;;;22.57;;
85691;SDS011;76122;47.806;18.914;2024-03-02T08:02:17;44.55;;;22.52;;
85691;SDS011;76122;47.806;18.914;2024-03-02T08:04:43;45.20;;;22.87;;
85691;SDS011;76122;47.806;18.914;2024-03-02T08:07:08;48.63;;;23.67;;
85691;SDS011;76122;47.806;18.914;2024-03-02T08:09:34;49.90;;;24.55;;
85691;SDS011;76122;47.806;18.914;2024-03-02T08:11:59;52.20;;;23.67;;
85691;SDS011;76122;47.806;18.914;2024-03-02T08:14:25;57.60;;;26.37;;
85691;SDS011;76122;47.806;18.914;2024-03-02T08:16:50;56.07;;;24.93;;
85691;SDS011;76122;47.806;18.914;2024-03-02T08:19:16;53.37;;;24.47;;
85691;SDS011;76122;47.806;18.914;2024-03-02T08:21:42;47.47;;;22.90;;
85691;SDS011;76122;47.806;18.914;2024-03-02T08:24:08;44.57;;;22.17;;
85691;SDS011;76122;47.806;18.914;2024-03-02T08:26:33;44.83;;;21.98;;
85691;SDS011;76122;47.806;18.914;2024-03-02T08:28:59;43.67;;;22.57;;
85691;SDS011;76122;47.806;18.914;2024-03-02T08:31:26;42.28;;;22.30;;
85691;SDS011;76122;47.806;18.914;2024-03-02T08:33:52;43.27;;;22.03;;
85691;SDS011;76122;47.806;18.914;2024-03-02T08:36:17;44.60;;;23.73;;
85691;SDS011;76122;47.806;18.914;2024-03-02T08:38:43;41.40;;;22.92;;
85691;SDS011;76122;47.806;18.914;2024-03-02T08:41:09;46.47;;;23.37;;
85691;SDS011;76122;47.806;18.914;2024-03-02T08:43:34;42.40;;;22.70;;
85691;SDS011;76122;47.806;18.914;2024-03-02T08:46:00;41.23;;;21.87;;
85691;SDS011;76122;47.806;18.914;2024-03-02T08:48:25;42.97;;;22.40;;
85691;SDS011;76122;47.806;18.914;2024-03-02T08:50:50;45.97;;;23.33;;
85691;SDS011;76122;47.806;18.914;2024-03-02T08:53:16;43.20;;;21.67;;
85691;SDS011;76122;47.806;18.914;2024-03-02T08:55:47;42.67;;;22.45;;
85691;SDS011;76122;47.806;18.914;2024-03-02T08:58:12;40.83;;;22.08;;
85691;SDS011;76122;47.806;18.914;2024-03-02T09:00:38;42.63;;;21.00;;
85691;SDS011;76122;47.806;18.914;2024-03-02T09:03:03;36.83;;;20.23;;
85691;SDS011;76122;47.806;18.914;2024-03-02T09:05:29;37.47;;;20.95;;
85691;SDS011;76122;47.806;18.914;2024-03-02T09:07:54;38.80;;;20.90;;
85691;SDS011;76122;47.806;18.914;2024-03-02T09:10:20;37.47;;;21.27;;
85691;SDS011;76122;47.806;18.914;2024-03-02T09:12:45;38.30;;;20.67;;
85691;SDS011;76122;47.806;18.914;2024-03-02T09:15:11;39.95;;;21.83;;
85691;SDS011;76122;47.806;18.914;2024-03-02T09:17:36;38.87;;;21.60;;
85691;SDS011;76122;47.806;18.914;2024-03-02T09:20:02;37.27;;;20.27;;
85691;SDS011;76122;47.806;18.914;2024-03-02T09:22:29;39.08;;;20.52;;
85691;SDS011;76122;47.806;18.914;2024-03-02T09:24:55;43.00;;;21.87;;
85691;SDS011;76122;47.806;18.914;2024-03-02T09:27:20;39.17;;;21.57;;
85691;SDS011;76122;47.806;18.914;2024-03-02T09:29:46;37.47;;;20.13;;
85691;SDS011;76122;47.806;18.914;2024-03-02T09:32:14;42.17;;;22.63;;
85691;SDS011;76122;47.806;18.914;2024-03-02T09:34:40;39.25;;;22.00;;
85691;SDS011;76122;47.806;18.914;2024-03-02T09:37:06;37.83;;;21.07;;
85691;SDS011;76122;47.806;18.914;2024-03-02T09:39:31;38.70;;;22.20;;
85691;SDS011;76122;47.806;18.914;2024-03-02T09:41:57;39.03;;;22.80;;
85691;SDS011;76122;47.806;18.914;2024-03-02T09:44:23;40.55;;;22.60;;
85691;SDS011;76122;47.806;18.914;2024-03-02T09:46:50;42.17;;;22.63;;
85691;SDS011;76122;47.806;18.914;2024-03-02T09:49:15;37.92;;;20.73;;
85691;SDS011;76122;47.806;18.914;2024-03-02T09:51:41;35.93;;;21.30;;
85691;SDS011;76122;47.806;18.914;2024-03-02T09:54:11;37.40;;;21.08;;
85691;SDS011;76122;47.806;18.914;2024-03-02T09:56:37;37.47;;;20.57;;
85691;SDS011;76122;47.806;18.914;2024-03-02T09:59:02;40.43;;;20.77;;
85691;SDS011;76122;47.806;18.914;2024-03-02T10:01:28;36.90;;;20.13;;
85691;SDS011;76122;47.806;18.914;2024-03-02T10:03:53;40.20;;;19.90;;
85691;SDS011;76122;47.806;18.914;2024-03-02T10:06:22;36.78;;;19.45;;
85691;SDS011;76122;47.806;18.914;2024-03-02T10:08:49;33.47;;;19.37;;
85691;SDS011;76122;47.806;18.914;2024-03-02T10:11:25;33.23;;;18.53;;
85691;SDS011;76122;47.806;18.914;2024-03-02T10:14:04;35.35;;;19.23;;
85691;SDS011;76122;47.806;18.914;2024-03-02T10:16:43;34.72;;;18.87;;
85691;SDS011;76122;47.806;18.914;2024-03-02T10:19:16;33.60;;;18.73;;
85691;SDS011;76122;47.806;18.914;2024-03-02T10:21:43;31.52;;;17.40;;
85691;SDS011;76122;47.806;18.914;2024-03-02T10:24:12;31.87;;;17.13;;
85691;SDS011;76122;47.806;18.914;2024-03-02T10:26:37;32.72;;;18.33;;
85691;SDS011;76122;47.806;18.914;2024-03-02T10:29:03;33.83;;;17.73;;
85691;SDS011;76122;47.806;18.914;2024-03-02T10:31:28;33.80;;;17.85;;
85691;SDS011;76122;47.806;18.914;2024-03-02T10:33:54;34.50;;;18.70;;
85691;SDS011;76122;47.806;18.914;2024-03-02T10:36:20;36.67;;;19.48;;
85691;SDS011;76122;47.806;18.914;2024-03-02T10:38:46;32.55;;;18.70;;
85691;SDS011;76122;47.806;18.914;2024-03-02T10:41:16;29.70;;;17.10;;
85691;SDS011;76122;47.806;18.914;2024-03-02T10:43:42;31.05;;;18.10;;
85691;SDS011;76122;47.806;18.914;2024-03-02T10:46:08;29.30;;;17.47;;
85691;SDS011;76122;47.806;18.914;2024-03-02T10:48:33;31.40;;;17.42;;
85691;SDS011;76122;47.806;18.914;2024-03-02T10:51:00;31.53;;;17.43;;
85691;SDS011;76122;47.806;18.914;2024-03-02T10:53:27;31.27;;;18.02;;
85691;SDS011;76122;47.806;18.914;2024-03-02T10:55:53;29.93;;;17.83;;
85691;SDS011;76122;47.806;18.914;2024-03-02T10:58:27;27.10;;;15.80;;
85691;SDS011;76122;47.806;18.914;2024-03-02T11:00:57;29.42;;;16.20;;
85691;SDS011;76122;47.806;18.914;2024-03-02T11:03:27;25.15;;;14.82;;
85691;SDS011;76122;47.806;18.914;2024-03-02T11:05:54;28.55;;;15.43;;
85691;SDS011;76122;47.806;18.914;2024-03-02T11:08:20;28.43;;;15.80;;
85691;SDS011;76122;47.806;18.914;2024-03-02T11:10:52;27.20;;;14.98;;
85691;SDS011;76122;47.806;18.914;2024-03-02T11:13:42;28.60;;;14.98;;
85691;SDS011;76122;47.806;18.914;2024-03-02T11:16:15;27.65;;;15.90;;
85691;SDS011;76122;47.806;18.914;2024-03-02T11:18:46;27.00;;;15.70;;
85691;SDS011;76122;47.806;18.914;2024-03-02T11:21:12;28.97;;;16.07;;
85691;SDS011;76122;47.806;18.914;2024-03-02T11:23:38;28.58;;;16.00;;
85691;SDS011;76122;47.806;18.914;2024-03-02T11:26:16;24.17;;;14.67;;
85691;SDS011;76122;47.806;18.914;2024-03-02T11:28:45;29.75;;;15.90;;
85691;SDS011;76122;47.806;18.914;2024-03-02T11:31:11;25.60;;;14.33;;
85691;SDS011;76122;47.806;18.914;2024-03-02T11:33:36;28.42;;;14.75;;
85691;SDS011;76122;47.806;18.914;2024-03-02T11:36:02;25.47;;;13.90;;
85691;SDS011;76122;47.806;18.914;2024-03-02T11:38:29;26.02;;;14.18;;
85691;SDS011;76122;47.806;18.914;2024-03-02T11:40:55;23.80;;;13.13;;
85691;SDS011;76122;47.806;18.914;2024-03-02T11:43:21;23.95;;;13.82;;
85691;SDS011;76122;47.806;18.914;2024-03-02T11:45:48;25.35;;;13.90;;
85691;SDS011;76122;47.806;18.914;2024-03-02T11:48:15;24.83;;;13.62;;
85691;SDS011;76122;47.806;18.914;2024-03-02T11:50:41;25.90;;;14.30;;
85691;SDS011;76122;47.806;18.914;2024-03-02T11:53:09;24.90;;;14.10;;
85691;SDS011;76122;47.806;18.914;2024-03-02T11:55:35;22.17;;;13.00;;
85691;SDS011;76122;47.806;18.914;2024-03-02T11:58:02;20.95;;;12.20;;
85691;SDS011;76122;47.806;18.914;2024-03-02T12:00:28;21.87;;;12.77;;
85691;SDS011;76122;47.806;18.914;2024-03-02T12:03:04;22.05;;;12.30;;
85691;SDS011;76122;47.806;18.914;2024-03-02T12:05:30;23.77;;;13.30;;
85691;SDS011;76122;47.806;18.914;2024-03-02T12:08:00;21.20;;;12.70;;
85691;SDS011;76122;47.806;18.914;2024-03-02T12:10:29;20.48;;;12.35;;
85691;SDS011;76122;47.806;18.914;2024-03-02T12:12:59;20.10;;;12.15;;
85691;SDS011;76122;47.806;18.914;2024-03-02T12:15:25;20.23;;;12.20;;
85691;SDS011;76122;47.806;18.914;2024-03-02T12:17:58;18.67;;;11.43;;
85691;SDS011;76122;47.806;18.914;2024-03-02T12:20:24;17.95;;;10.65;;
85691;SDS011;76122;47.806;18.914;2024-03-02T12:22:51;17.83;;;11.07;;
85691;SDS011;76122;47.806;18.914;2024-03-02T12:25:21;18.73;;;10.50;;
85691;SDS011;76122;47.806;18.914;2024-03-02T12:27:48;16.93;;;10.13;;
85691;SDS011;76122;47.806;18.914;2024-03-02T12:30:16;17.95;;;11.10;;
85691;SDS011;76122;47.806;18.914;2024-03-02T12:32:42;19.33;;;11.00;;
85691;SDS011;76122;47.806;18.914;2024-03-02T12:35:07;18.60;;;11.37;;
85691;SDS011;76122;47.806;18.914;2024-03-02T12:37:41;20.10;;;11.25;;
85691;SDS011;76122;47.806;18.914;2024-03-02T12:40:13;19.12;;;11.00;;
85691;SDS011;76122;47.806;18.914;2024-03-02T12:42:39;16.50;;;9.50;;
85691;SDS011;76122;47.806;18.914;2024-03-02T12:45:06;18.10;;;10.60;;
85691;SDS011;76122;47.806;18.914;2024-03-02T12:47:33;16.77;;;9.70;;
85691;SDS011;76122;47.806;18.914;2024-03-02T12:49:59;16.73;;;10.32;;
85691;SDS011;76122;47.806;18.914;2024-03-02T12:52:24;70.90;;;31.43;;
85691;SDS011;76122;47.806;18.914;2024-03-02T12:54:50;69.62;;;33.20;;
85691;SDS011;76122;47.806;18.914;2024-03-02T12:57:18;52.20;;;24.65;;
85691;SDS011;76122;47.806;18.914;2024-03-02T12:59:46;35.47;;;18.52;;
85691;SDS011;76122;47.806;18.914;2024-03-02T13:02:18;28.83;;;14.80;;
85691;SDS011;76122;47.806;18.914;2024-03-02T13:04:44;21.15;;;12.18;;
85691;SDS011;76122;47.806;18.914;2024-03-02T13:07:10;17.53;;;10.97;;
85691;SDS011;76122;47.806;18.914;2024-03-02T13:09:35;15.68;;;10.02;;
85691;SDS011;76122;47.806;18.914;2024-03-02T13:12:01;17.80;;;10.17;;
85691;SDS011;76122;47.806;18.914;2024-03-02T13:14:28;18.50;;;10.23;;
85691;SDS011;76122;47.806;18.914;2024-03-02T13:16:53;17.03;;;10.93;;
85691;SDS011;76122;47.806;18.914;2024-03-02T13:19:19;16.80;;;10.23;;
85691;SDS011;76122;47.806;18.914;2024-03-02T13:21:44;20.88;;;10.80;;
85691;SDS011;76122;47.806;18.914;2024-03-02T13:24:09;19.37;;;11.10;;
85691;SDS011;76122;47.806;18.914;2024-03-02T13:26:35;17.87;;;11.00;;
85691;SDS011;76122;47.806;18.914;2024-03-02T13:29:00;21.07;;;12.03;;
85691;SDS011;76122;47.806;18.914;2024-03-02T13:31:26;18.80;;;11.53;;
85691;SDS011;76122;47.806;18.914;2024-03-02T13:33:51;18.17;;;11.05;;
85691;SDS011;76122;47.806;18.914;2024-03-02T13:36:17;22.80;;;11.73;;
85691;SDS011;76122;47.806;18.914;2024-03-02T13:38:43;18.13;;;11.63;;
85691;SDS011;76122;47.806;18.914;2024-03-02T13:41:08;19.90;;;12.37;;
85691;SDS011;76122;47.806;18.914;2024-03-02T13:43:34;19.33;;;12.23;;
85691;SDS011;76122;47.806;18.914;2024-03-02T13:46:00;21.27;;;13.02;;
85691;SDS011;76122;47.806;18.914;2024-03-02T13:48:27;17.87;;;12.17;;
85691;SDS011;76122;47.806;18.914;2024-03-02T13:50:53;19.58;;;12.43;;
85691;SDS011;76122;47.806;18.914;2024-03-02T13:53:18;19.27;;;11.53;;
85691;SDS011;76122;47.806;18.914;2024-03-02T13:55:44;19.77;;;11.15;;
85691;SDS011;76122;47.806;18.914;2024-03-02T13:58:10;17.83;;;11.27;;
85691;SDS011;76122;47.806;18.914;2024-03-02T14:00:36;17.97;;;11.37;;
85691;SDS011;76122;47.806;18.914;2024-03-02T14:03:02;18.12;;;11.32;;
85691;SDS011;76122;47.806;18.914;2024-03-02T14:05:28;17.12;;;10.82;;